Time;durP1;ratioP1;P1;durP2;ratioP2;P2;SDS_P1;SDS_P2;PMS_P1;PMS_P2;Temp;Humidity;BMP_temperature;BMP_pressure;BME280_temperature;BME280_humidity;BME280_pressure;Samples;Min_cycle;Max_cycle;Signal;HPM_P1;HPM_P2
2021/12/20 00:01:36;;;;;;;7.70;6.25;;;;;;;3.48;83.18;99576.28;4973078;28;20034;-71
2021/12/20 00:04:02;;;;;;;5.93;5.43;;;;;;;3.39;87.97;99577.22;4973294;28;20023;-72
2021/12/20 00:06:28;;;;;;;6.10;5.60;;;;;;;3.28;90.15;99591.34;4973656;28;20081;-73
2021/12/20 00:08:53;;;;;;;6.05;5.55;;;;;;;3.21;92.54;99586.88;4972003;28;20042;-72
2021/12/20 00:11:19;;;;;;;5.20;4.90;;;;;;;3.15;95.78;99593.53;4972955;28;20043;-71
2021/12/20 00:13:44;;;;;;;5.78;5.38;;;;;;;3.10;98.45;99582.69;4971471;28;20162;-70
2021/12/20 00:16:10;;;;;;;6.45;5.72;;;;;;;3.05;100.00;99580.50;4971482;28;20034;-70
2021/12/20 00:18:35;;;;;;;5.70;5.22;;;;;;;3.07;100.00;99588.22;4972850;28;20037;-71
2021/12/20 00:21:00;;;;;;;5.80;5.30;;;;;;;3.08;100.00;99589.84;4970772;28;20461;-70
2021/12/20 00:23:26;;;;;;;5.53;5.03;;;;;;;3.03;100.00;99585.09;4972310;28;20023;-71
2021/12/20 00:25:52;;;;;;;5.18;4.88;;;;;;;3.07;100.00;99592.63;4964614;28;20034;-72
2021/12/20 00:28:19;;;;;;;5.03;4.72;;;;;;;3.13;100.00;99602.53;4966514;28;20027;-71
2021/12/20 00:30:45;;;;;;;5.70;5.28;;;;;;;3.11;100.00;99596.63;4970374;28;20093;-72
2021/12/20 00:33:11;;;;;;;6.15;5.65;;;;;;;3.16;100.00;99604.84;4972558;28;20038;-73
2021/12/20 00:35:39;;;;;;;5.85;5.45;;;;;;;3.10;100.00;99610.69;4976273;28;20019;-72
2021/12/20 00:40:50;;;;;;;6.32;5.75;;;;;;;3.14;100.00;99633.81;4980087;28;20102;-71
2021/12/20 00:43:16;;;;;;;7.03;6.43;;;;;;;3.14;100.00;99625.13;4975882;28;20066;-72
2021/12/20 00:45:42;;;;;;;5.90;5.40;;;;;;;3.11;100.00;99631.50;4977025;28;20097;-70
2021/12/20 00:48:07;;;;;;;5.70;5.30;;;;;;;3.13;100.00;99624.31;4976475;28;20059;-70
2021/12/20 00:50:34;;;;;;;5.50;5.18;;;;;;;3.05;100.00;99632.91;4974831;28;20504;-70
2021/12/20 00:52:59;;;;;;;7.07;6.10;;;;;;;3.05;100.00;99634.72;4975704;28;20034;-70
2021/12/20 00:55:27;;;;;;;5.95;5.55;;;;;;;3.02;100.00;99637.66;4974428;28;20027;-71
2021/12/20 00:57:55;;;;;;;5.90;5.50;;;;;;;2.99;100.00;99646.59;4959981;28;20041;-70
2021/12/20 01:00:24;;;;;;;5.97;5.57;;;;;;;2.99;100.00;99643.97;4974857;28;20055;-70
2021/12/20 01:02:51;;;;;;;5.18;4.78;;;;;;;2.95;100.00;99649.69;4964430;28;20031;-70
2021/12/20 01:05:16;;;;;;;5.20;4.88;;;;;;;2.97;100.00;99661.66;4973546;28;20023;-71
2021/12/20 01:07:42;;;;;;;5.90;5.50;;;;;;;2.92;100.00;99655.19;4975226;28;20039;-70
2021/12/20 01:10:09;;;;;;;5.50;5.20;;;;;;;2.89;100.00;99652.88;4974035;28;20037;-70
2021/12/20 01:12:48;;;;;;;5.30;4.90;;;;;;;2.87;100.00;99663.50;4964803;28;20031;-69
2021/12/20 01:15:23;;;;;;;5.20;4.90;;;;;;;2.76;100.00;99648.81;4970233;28;20042;-70
2021/12/20 01:17:49;;;;;;;4.75;4.50;;;;;;;2.79;100.00;99655.53;4962344;28;20085;-70
2021/12/20 01:20:15;;;;;;;5.95;5.45;;;;;;;2.72;100.00;99651.88;4974637;28;20031;-71
2021/12/20 01:22:45;;;;;;;4.97;4.63;;;;;;;2.72;100.00;99651.88;4963294;28;20086;-70
2021/12/20 01:25:12;;;;;;;4.55;4.15;;;;;;;2.71;100.00;99656.28;4972092;28;20030;-70
2021/12/20 01:27:37;;;;;;;8.60;5.20;;;;;;;2.70;100.00;99661.66;4975519;28;20038;-69
2021/12/20 01:30:05;;;;;;;5.07;4.68;;;;;;;2.70;100.00;99661.66;4973229;28;20505;-70
2021/12/20 01:32:31;;;;;;;5.38;4.88;;;;;;;2.62;100.00;99665.00;4974057;28;20161;-71
2021/12/20 01:34:56;;;;;;;5.45;4.95;;;;;;;2.64;100.00;99670.09;4974074;28;20106;-70
2021/12/20 01:37:22;;;;;;;5.80;5.30;;;;;;;2.61;100.00;99675.63;4975585;28;20174;-70
2021/12/20 01:39:47;;;;;;;5.40;5.00;;;;;;;2.56;100.00;99673.44;4975919;28;20027;-69
2021/12/20 01:42:20;;;;;;;5.30;4.90;;;;;;;2.38;100.00;99669.94;4988204;28;20030;-69
2021/12/20 01:44:46;;;;;;;5.07;4.78;;;;;;;2.41;100.00;99665.22;4976210;28;20027;-70
2021/12/20 01:47:14;;;;;;;4.97;4.63;;;;;;;2.33;100.00;99672.16;4977316;28;20023;-69
2021/12/20 01:49:53;;;;;;;4.40;4.20;;;;;;;2.23;100.00;99672.19;4970787;28;20370;-69
2021/12/20 01:52:23;;;;;;;5.50;5.18;;;;;;;2.25;100.00;99675.47;4963699;28;20038;-72
2021/12/20 01:54:50;;;;;;;4.40;4.20;;;;;;;2.18;100.00;99690.09;4973717;28;20058;-69
2021/12/20 01:57:15;;;;;;;4.70;4.50;;;;;;;2.19;100.00;99689.94;4965928;28;20524;-71
2021/12/20 01:59:42;;;;;;;4.25;4.05;;;;;;;2.12;100.00;99686.25;4973779;28;20030;-70
2021/12/20 02:02:08;;;;;;;4.30;4.10;;;;;;;1.93;100.00;99705.44;4973061;28;20057;-71
2021/12/20 02:04:44;;;;;;;4.30;4.07;;;;;;;1.93;100.00;99702.81;4966341;28;20034;-71
2021/12/20 02:07:19;;;;;;;4.38;4.18;;;;;;;1.97;100.00;99708.56;4963140;28;20035;-72
2021/12/20 02:09:45;;;;;;;4.70;4.40;;;;;;;2.02;100.00;99702.94;4964588;28;20420;-71
2021/12/20 02:12:10;;;;;;;5.00;4.70;;;;;;;1.96;100.00;99709.53;4967270;28;20037;-72
2021/12/20 02:14:36;;;;;;;4.68;4.43;;;;;;;1.94;100.00;99717.53;4959936;28;20461;-71
2021/12/20 02:17:02;;;;;;;4.88;4.57;;;;;;;1.93;100.00;99709.84;4972386;28;20465;-73
2021/12/20 02:19:27;;;;;;;5.03;4.72;;;;;;;1.90;100.00;99712.72;4968756;28;20027;-72
2021/12/20 02:21:53;;;;;;;6.18;4.88;;;;;;;1.89;100.00;99717.13;4971264;28;20031;-71
2021/12/20 02:24:18;;;;;;;6.95;5.75;;;;;;;1.91;100.00;99717.00;4971018;28;20035;-72
2021/12/20 02:26:44;;;;;;;5.28;4.80;;;;;;;1.85;100.00;99720.16;4973652;28;20046;-71
2021/12/20 02:29:10;;;;;;;5.32;4.90;;;;;;;1.82;100.00;99723.03;4972239;28;20030;-71
2021/12/20 02:37:27;;;;;;;5.57;5.07;;;;;;;1.79;100.00;99732.00;4972713;28;20094;-72
2021/12/20 02:39:53;;;;;;;5.57;5.05;;;;;;;1.83;100.00;99730.75;4972912;28;20053;-73
2021/12/20 02:42:23;;;;;;;5.38;4.97;;;;;;;1.83;100.00;99715.06;4972865;28;20389;-70
2021/12/20 02:45:06;;;;;;;5.22;4.82;;;;;;;1.81;100.00;99737.09;4970014;28;20031;-70
2021/12/20 02:47:31;;;;;;;5.45;5.10;;;;;;;1.82;100.00;99736.13;4977301;28;20035;-72
2021/12/20 02:49:58;;;;;;;5.68;4.88;;;;;;;1.78;100.00;99724.28;4974505;28;20034;-72
2021/12/20 02:52:24;;;;;;;5.40;5.05;;;;;;;1.79;100.00;99726.78;4976060;28;20031;-72
2021/12/20 02:54:49;;;;;;;5.45;4.57;;;;;;;1.72;100.00;99730.06;4973484;28;20134;-71
2021/12/20 02:57:15;;;;;;;5.70;5.30;;;;;;;1.70;100.00;99734.63;4971699;28;20460;-72
2021/12/20 02:59:41;;;;;;;5.30;4.90;;;;;;;1.63;100.00;99729.94;4965761;28;20039;-72
2021/12/20 03:02:08;;;;;;;4.68;4.38;;;;;;;1.58;100.00;99733.91;4970434;28;20481;-70
2021/12/20 03:04:34;;;;;;;5.47;5.00;;;;;;;1.54;100.00;99749.06;4967496;28;20093;-72
2021/12/20 03:07:06;;;;;;;4.95;4.65;;;;;;;1.49;100.00;99747.81;4972897;28;20089;-71
2021/12/20 03:09:37;;;;;;;5.25;4.95;;;;;;;1.45;100.00;99752.47;4970173;28;20366;-70
2021/12/20 03:12:05;;;;;;;5.53;5.03;;;;;;;1.42;100.00;99757.97;4957108;28;20491;-71
2021/12/20 03:14:36;;;;;;;4.70;4.47;;;;;;;1.42;100.00;99757.97;4973351;28;20027;-72
2021/12/20 03:17:03;;;;;;;5.72;5.32;;;;;;;1.39;100.00;99755.59;4960651;28;20039;-69
2021/12/20 03:19:29;;;;;;;6.30;5.10;;;;;;;1.39;100.00;99756.44;4971327;28;20034;-71
2021/12/20 03:21:55;;;;;;;5.28;4.88;;;;;;;1.34;100.00;99763.88;4961394;28;20117;-72
2021/12/20 03:24:21;;;;;;;5.32;4.85;;;;;;;1.34;100.00;99774.31;4965546;28;20551;-72
2021/12/20 03:26:47;;;;;;;5.25;4.85;;;;;;;1.27;100.00;99757.53;4966960;28;20114;-72
2021/12/20 03:29:12;;;;;;;5.32;4.85;;;;;;;1.26;100.00;99758.50;4968546;28;20102;-72
2021/12/20 03:31:38;;;;;;;5.30;4.90;;;;;;;1.25;100.00;99763.81;4966509;28;20114;-72
2021/12/20 03:34:05;;;;;;;5.53;5.15;;;;;;;1.28;100.00;99769.63;4973485;28;20129;-72
2021/12/20 03:36:31;;;;;;;4.95;4.72;;;;;;;1.24;100.00;99775.25;4971726;28;20516;-72
2021/12/20 03:38:57;;;;;;;5.85;5.45;;;;;;;1.20;100.00;99771.25;4967034;28;20055;-71
2021/12/20 03:41:23;;;;;;;5.80;5.20;;;;;;;1.22;100.00;99770.16;4958732;28;20477;-70
2021/12/20 03:43:49;;;;;;;6.47;4.63;;;;;;;1.24;100.00;99768.22;4970465;28;20117;-71
2021/12/20 03:46:15;;;;;;;5.32;4.82;;;;;;;1.24;100.00;99777.84;4972181;28;20019;-70
2021/12/20 03:48:41;;;;;;;5.13;4.72;;;;;;;1.23;100.00;99786.66;4970698;28;20373;-72
2021/12/20 03:51:06;;;;;;;4.68;4.30;;;;;;;1.23;100.00;99773.59;4973129;28;20121;-71
2021/12/20 03:53:33;;;;;;;7.57;4.47;;;;;;;1.17;100.00;99774.13;4967071;28;20476;-72
2021/12/20 03:56:00;;;;;;;5.40;5.10;;;;;;;1.18;100.00;99778.41;4970357;28;20081;-71
2021/12/20 03:58:27;;;;;;;11.43;4.82;;;;;;;1.11;100.00;99778.13;4970707;28;20392;-72
2021/12/20 04:00:55;;;;;;;5.63;4.72;;;;;;;1.09;100.00;99778.22;4972763;28;20033;-73
2021/12/20 04:03:20;;;;;;;4.95;4.65;;;;;;;1.07;100.00;99772.31;4968641;28;20030;-72
2021/12/20 04:05:46;;;;;;;4.75;4.47;;;;;;;0.99;100.00;99769.53;4967971;28;20043;-72
2021/12/20 04:08:11;;;;;;;5.43;5.13;;;;;;;0.99;100.00;99769.53;4966450;28;20424;-71
2021/12/20 04:10:37;;;;;;;4.90;4.50;;;;;;;0.97;100.00;99771.47;4962338;28;20039;-71
2021/12/20 04:13:02;;;;;;;5.60;5.30;;;;;;;0.97;100.00;99786.31;4973668;28;20484;-71
2021/12/20 04:15:28;;;;;;;4.70;4.35;;;;;;;0.93;100.00;99792.75;4976729;28;20106;-73
2021/12/20 04:17:54;;;;;;;4.60;4.20;;;;;;;0.93;100.00;99787.50;4968079;28;20473;-72
2021/12/20 04:20:19;;;;;;;5.75;5.20;;;;;;;0.90;100.00;99788.63;4976722;28;20031;-71
2021/12/20 04:22:45;;;;;;;5.63;5.22;;;;;;;0.88;100.00;99787.91;4972537;28;20023;-73
2021/12/20 04:25:10;;;;;;;7.32;5.28;;;;;;;0.89;100.00;99791.38;4975610;28;20464;-72
2021/12/20 04:27:36;;;;;;;5.38;4.88;;;;;;;0.87;100.00;99796.69;4963863;28;20378;-71
2021/12/20 04:30:11;;;;;;;5.90;5.10;;;;;;;0.85;100.00;99803.84;4974297;28;20025;-72
2021/12/20 04:32:42;;;;;;;6.03;5.50;;;;;;;0.76;100.00;99781.94;4975009;28;20034;-71
2021/12/20 04:35:09;;;;;;;6.22;5.57;;;;;;;0.73;100.00;99789.19;4976130;28;20027;-71
2021/12/20 04:37:35;;;;;;;5.10;4.80;;;;;;;0.67;100.00;99790.56;4970561;28;20035;-72
2021/12/20 04:40:06;;;;;;;5.47;5.07;;;;;;;0.63;100.00;99793.56;4971652;28;20058;-70
2021/12/20 04:42:32;;;;;;;5.85;5.45;;;;;;;0.60;100.00;99796.44;4975223;28;20034;-69
2021/12/20 04:44:58;;;;;;;4.95;4.65;;;;;;;0.57;100.00;99800.09;4974284;28;20066;-70
2021/12/20 04:47:23;;;;;;;5.65;5.03;;;;;;;0.53;100.00;99799.56;4974996;28;20059;-70
2021/12/20 04:49:50;;;;;;;6.35;5.70;;;;;;;0.46;100.00;99814.06;4973619;28;20544;-69
2021/12/20 04:52:17;;;;;;;12.10;5.72;;;;;;;0.45;100.00;99820.25;4970652;28;20405;-71
2021/12/20 04:54:42;;;;;;;6.68;6.00;;;;;;;0.44;100.00;99817.75;4969078;28;20070;-71
2021/12/20 04:57:08;;;;;;;5.78;5.38;;;;;;;0.41;100.00;99820.63;4972723;28;20027;-71
2021/12/20 04:59:34;;;;;;;9.63;5.75;;;;;;;0.39;100.00;99823.34;4974045;28;20499;-72
2021/12/20 05:02:00;;;;;;;6.07;5.57;;;;;;;0.33;100.00;99818.63;4975752;28;20130;-71
2021/12/20 05:04:25;;;;;;;5.30;4.80;;;;;;;0.31;100.00;99819.72;4973200;28;20093;-71
2021/12/20 05:06:51;;;;;;;7.18;5.97;;;;;;;0.30;100.00;99821.50;4973330;28;20425;-71
2021/12/20 05:09:18;;;;;;;7.05;6.45;;;;;;;0.22;100.00;99822.16;4972847;28;20038;-70
2021/12/20 05:11:50;;;;;;;23.80;5.93;;;;;;;0.18;100.00;99825.13;4972492;28;20035;-71
2021/12/20 05:14:17;;;;;;;6.82;5.32;;;;;;;0.16;100.00;99827.03;4972435;28;20077;-70
2021/12/20 05:16:42;;;;;;;13.52;5.75;;;;;;;0.12;100.00;99823.84;4973409;28;20086;-72
2021/12/20 05:19:08;;;;;;;6.72;6.18;;;;;;;0.06;100.00;99824.31;4974332;28;20034;-71
2021/12/20 05:21:33;;;;;;;6.57;6.07;;;;;;;0.00;100.00;99806.59;4981435;28;20038;-71
2021/12/20 05:23:59;;;;;;;6.05;5.43;;;;;;;0.01;100.00;99821.28;4971923;28;20042;-71
2021/12/20 05:26:26;;;;;;;6.63;6.18;;;;;;;0.01;100.00;99821.28;4973737;28;20092;-72
2021/12/20 05:28:51;;;;;;;17.40;6.35;;;;;;;-0.06;100.00;99827.94;4972692;28;20042;-72
2021/12/20 05:31:17;;;;;;;7.18;6.57;;;;;;;-0.07;100.00;99826.28;4975054;28;20039;-72
2021/12/20 05:33:43;;;;;;;6.82;6.13;;;;;;;-0.09;100.00;99823.78;4974127;28;20477;-72
2021/12/20 05:36:09;;;;;;;8.52;6.45;;;;;;;-0.05;100.00;99825.22;4973531;28;20038;-72
2021/12/20 05:38:34;;;;;;;6.35;5.75;;;;;;;-0.09;100.00;99831.59;4972741;28;20380;-71
2021/12/20 05:41:00;;;;;;;7.43;6.65;;;;;;;-0.09;100.00;99842.03;4972807;28;20117;-71
2021/12/20 05:43:25;;;;;;;15.57;5.97;;;;;;;-0.08;100.00;99832.44;4974975;28;20027;-71
2021/12/20 05:45:51;;;;;;;7.35;6.68;;;;;;;-0.11;100.00;99838.72;4973970;28;20027;-73
2021/12/20 05:48:16;;;;;;;9.02;7.05;;;;;;;-0.12;100.00;99839.69;4969876;28;20035;-72
2021/12/20 05:50:42;;;;;;;9.32;6.28;;;;;;;-0.13;100.00;99842.44;4973200;28;20034;-71
2021/12/20 05:53:07;;;;;;;10.38;8.02;;;;;;;-0.17;100.00;99841.81;4974531;28;20497;-72
2021/12/20 05:55:33;;;;;;;12.20;7.72;;;;;;;-0.18;100.00;99844.56;4973205;28;20043;-73
2021/12/20 05:57:58;;;;;;;7.10;6.43;;;;;;;-0.19;100.00;99853.34;4973762;28;20026;-72
2021/12/20 06:00:24;;;;;;;10.00;7.57;;;;;;;-0.15;100.00;99852.13;4971824;28;20365;-71
2021/12/20 06:02:51;;;;;;;9.25;7.90;;;;;;;-0.23;100.00;99850.13;4972719;28;20030;-72
2021/12/20 06:05:18;;;;;;;9.45;8.10;;;;;;;-0.20;100.00;99855.13;4969947;28;20034;-70
2021/12/20 06:07:43;;;;;;;10.80;8.27;;;;;;;-0.13;100.00;99865.88;4976238;28;20404;-70
2021/12/20 06:10:15;;;;;;;8.15;7.43;;;;;;;-0.11;100.00;99859.59;4971869;28;20042;-71
2021/12/20 06:12:41;;;;;;;9.30;6.97;;;;;;;-0.09;100.00;99862.06;4971678;28;20113;-74
2021/12/20 06:15:07;;;;;;;9.25;8.25;;;;;;;-0.02;100.00;99855.41;4970585;28;20041;-74
2021/12/20 06:17:34;;;;;;;8.18;7.25;;;;;;;0.10;100.00;99864.88;4971814;28;20362;-71
2021/12/20 06:20:01;;;;;;;7.65;6.93;;;;;;;0.28;100.00;99867.75;4972835;28;20033;-71
2021/12/20 06:22:26;;;;;;;9.27;8.15;;;;;;;1.02;100.00;99871.13;4971706;28;20062;-72
2021/12/20 06:24:52;;;;;;;15.38;8.18;;;;;;;1.32;100.00;99862.47;4970826;28;20110;-69
2021/12/20 06:27:17;;;;;;;12.02;6.55;;;;;;;1.28;100.00;99881.97;4971677;28;20031;-70
2021/12/20 06:29:43;;;;;;;7.00;6.30;;;;;;;1.24;100.00;99871.91;4972951;28;20201;-69
2021/12/20 06:32:08;;;;;;;12.30;7.18;;;;;;;1.38;100.00;99882.84;4973443;28;20045;-69
2021/12/20 06:34:35;;;;;;;8.80;7.95;;;;;;;0.97;100.00;99875.09;4969724;28;20030;-71
2021/12/20 06:37:01;;;;;;;7.82;7.00;;;;;;;0.99;100.00;99874.00;4972285;28;20034;-71
2021/12/20 06:39:30;;;;;;;9.02;7.38;;;;;;;1.35;100.00;99877.88;4971920;28;20041;-70
2021/12/20 06:41:55;;;;;;;9.48;7.85;;;;;;;1.27;100.00;99880.31;4977842;28;20026;-69
2021/12/20 06:44:21;;;;;;;13.20;6.85;;;;;;;1.19;100.00;99884.56;4973118;28;20587;-70
2021/12/20 06:46:46;;;;;;;7.72;7.10;;;;;;;1.28;100.00;99879.38;4971986;28;20499;-70
2021/12/20 06:49:12;;;;;;;7.95;6.68;;;;;;;2.11;100.00;99893.06;4972433;28;20481;-70
2021/12/20 06:51:41;;;;;;;15.63;7.57;;;;;;;2.18;100.00;99891.56;4971441;28;20057;-71
2021/12/20 06:54:08;;;;;;;13.35;7.68;;;;;;;5.20;88.18;99890.69;4969975;28;20031;-71
2021/12/20 06:56:34;;;;;;;7.47;6.78;;;;;;;8.00;72.93;99909.75;4971186;28;20038;-70
2021/12/20 06:58:59;;;;;;;8.05;7.35;;;;;;;8.89;68.28;99914.63;4971382;28;20385;-69
2021/12/20 07:01:25;;;;;;;8.77;7.13;;;;;;;10.59;59.36;99919.75;4970543;28;20031;-69
2021/12/20 07:03:50;;;;;;;11.80;7.03;;;;;;;12.10;53.27;99923.63;4972304;28;20038;-69
2021/12/20 07:06:16;;;;;;;11.70;7.10;;;;;;;8.07;62.86;99924.91;4973070;28;20030;-70
2021/12/20 07:08:42;;;;;;;10.13;7.93;;;;;;;4.64;77.59;99926.94;4971559;28;20026;-69
2021/12/20 07:11:09;;;;;;;8.10;7.28;;;;;;;4.04;80.85;99924.06;4968706;28;20480;-69
2021/12/20 07:13:34;;;;;;;9.88;7.78;;;;;;;4.09;80.67;99923.59;4972673;28;20675;-68
2021/12/20 07:16:00;;;;;;;8.43;7.57;;;;;;;3.30;83.35;99924.09;4979860;28;20034;-67
2021/12/20 07:18:25;;;;;;;9.75;8.57;;;;;;;5.67;74.83;99927.94;4973329;28;20030;-69
2021/12/20 07:20:51;;;;;;;9.82;7.85;;;;;;;8.32;64.57;99929.09;4972431;28;20097;-69
2021/12/20 07:23:17;;;;;;;14.80;8.32;;;;;;;11.02;54.45;99938.28;4971349;28;20077;-68
2021/12/20 07:25:42;;;;;;;14.52;7.57;;;;;;;12.24;48.82;99935.94;4969868;28;20633;-69
2021/12/20 07:28:08;;;;;;;14.43;8.80;;;;;;;12.26;48.74;99930.41;4969060;28;20019;-63
2021/12/20 07:30:35;;;;;;;9.30;8.40;;;;;;;13.49;45.38;99927.22;4962313;28;20784;-77
2021/12/20 07:33:01;;;;;;;12.32;8.27;;;;;;;14.09;43.32;99935.84;4966039;28;20042;-72
2021/12/20 07:35:27;;;;;;;12.32;9.70;;;;;;;12.71;45.36;99931.56;4967990;28;20015;-73
2021/12/20 07:37:56;;;;;;;10.50;8.60;;;;;;;14.46;42.75;99944.09;4970050;28;20054;-73
2021/12/20 07:40:21;;;;;;;10.77;8.85;;;;;;;14.60;41.49;99929.66;4971336;28;20039;-76
2021/12/20 07:42:47;;;;;;;12.63;10.70;;;;;;;15.46;39.05;99946.84;4980620;28;20057;-75
2021/12/20 07:45:12;;;;;;;14.52;9.75;;;;;;;15.16;38.85;99939.50;4967747;28;20085;-77
2021/12/20 07:47:38;;;;;;;10.27;9.20;;;;;;;14.87;38.81;99927.63;4970744;28;20396;-80
2021/12/20 07:50:06;;;;;;;14.73;10.63;;;;;;;15.74;37.91;99936.50;4964203;28;20091;-78
2021/12/20 07:52:32;;;;;;;10.57;9.57;;;;;;;14.00;40.64;99928.31;4969536;28;20034;-71
2021/12/20 07:54:59;;;;;;;10.18;9.00;;;;;;;13.62;40.53;99939.72;4964964;28;20076;-75
2021/12/20 07:57:25;;;;;;;13.50;9.68;;;;;;;15.47;37.78;99951.97;4973237;28;20089;-74
2021/12/20 07:59:50;;;;;;;13.32;9.18;;;;;;;16.29;36.37;99949.81;4972253;28;20416;-72
2021/12/20 08:02:16;;;;;;;9.45;8.55;;;;;;;14.48;38.70;99938.59;4969576;28;20510;-73
2021/12/20 08:04:47;;;;;;;11.82;8.57;;;;;;;13.03;42.13;99935.25;4969891;28;20027;-73
2021/12/20 08:07:13;;;;;;;9.80;8.68;;;;;;;14.75;38.86;99944.56;4971026;28;20027;-73
2021/12/20 08:09:39;;;;;;;13.75;9.05;;;;;;;13.47;41.50;99939.94;4964619;28;21884;-75
2021/12/20 08:12:05;;;;;;;14.95;8.48;;;;;;;13.87;39.07;99949.69;4967844;28;20030;-71
2021/12/20 08:14:30;;;;;;;9.50;8.57;;;;;;;13.83;39.71;99947.44;4972209;28;20042;-69
2021/12/20 08:16:55;;;;;;;10.07;9.15;;;;;;;13.74;39.60;99945.22;4972850;28;20381;-75
2021/12/20 08:19:21;;;;;;;10.15;9.23;;;;;;;8.82;51.44;99944.47;4978197;28;20027;-72
2021/12/20 08:21:46;;;;;;;10.07;8.85;;;;;;;7.28;57.07;99951.28;4967007;28;20480;-71
2021/12/20 08:24:12;;;;;;;9.35;8.45;;;;;;;10.78;49.43;99958.06;4958697;28;20094;-71
2021/12/20 08:26:37;;;;;;;9.23;8.30;;;;;;;8.23;53.29;99961.84;4964134;28;20022;-71
2021/12/20 08:29:03;;;;;;;12.23;8.02;;;;;;;6.86;57.45;99954.91;4959023;28;20030;-73
2021/12/20 08:31:28;;;;;;;8.73;7.90;;;;;;;5.66;62.12;99957.06;4962949;28;20503;-73
2021/12/20 08:33:54;;;;;;;9.70;8.65;;;;;;;6.31;61.78;99959.94;4970263;28;20393;-73
2021/12/20 08:36:20;;;;;;;10.40;8.52;;;;;;;6.09;62.83;99959.53;4966108;28;20077;-74
2021/12/20 08:38:46;;;;;;;8.55;7.68;;;;;;;5.01;65.50;99954.00;4972201;28;20519;-75
2021/12/20 08:41:12;;;;;;;8.98;7.97;;;;;;;4.82;66.51;99944.50;4971529;28;20185;-71
2021/12/20 08:43:39;;;;;;;9.20;8.02;;;;;;;6.07;61.73;99956.25;4967788;28;20035;-72
2021/12/20 08:46:04;;;;;;;12.40;8.48;;;;;;;7.65;60.07;99963.88;4968284;28;20027;-73
2021/12/20 08:48:31;;;;;;;14.13;8.40;;;;;;;5.27;65.81;99960.09;4972491;28;20548;-74
2021/12/20 08:51:01;;;;;;;12.05;7.85;;;;;;;7.67;56.32;99953.97;4969049;28;20401;-72
2021/12/20 08:53:27;;;;;;;11.77;7.65;;;;;;;6.07;63.31;99948.34;4967082;28;20460;-74
2021/12/20 08:55:53;;;;;;;13.57;7.38;;;;;;;4.81;67.47;99962.06;4973334;28;20492;-73
2021/12/20 08:58:18;;;;;;;12.77;8.23;;;;;;;5.75;64.09;99943.78;4970392;28;20046;-70
2021/12/20 09:00:44;;;;;;;10.85;7.35;;;;;;;4.57;67.08;99946.91;4973101;28;20026;-74
2021/12/20 09:03:10;;;;;;;10.45;7.15;;;;;;;5.26;66.70;99955.81;4968898;28;20475;-73
2021/12/20 09:05:36;;;;;;;16.05;8.90;;;;;;;6.20;63.55;99952.34;4972459;28;20027;-74
2021/12/20 09:08:03;;;;;;;8.73;7.85;;;;;;;5.78;64.53;99958.41;4974669;28;20035;-74
2021/12/20 09:10:31;;;;;;;11.57;7.65;;;;;;;4.93;66.56;99947.72;4973522;28;20176;-74
2021/12/20 09:12:57;;;;;;;7.55;6.85;;;;;;;4.63;66.13;99937.63;4972505;28;20543;-72
2021/12/20 09:15:23;;;;;;;7.57;6.88;;;;;;;5.89;60.85;99945.00;4973979;28;20170;-75
2021/12/20 09:17:52;;;;;;;8.90;7.82;;;;;;;8.21;54.92;99945.31;4975279;28;20113;-75
2021/12/20 09:20:21;;;;;;;11.52;7.57;;;;;;;8.17;52.68;99954.59;4974571;28;20485;-76
2021/12/20 09:23:02;;;;;;;7.53;6.85;;;;;;;6.98;54.23;99949.31;4979588;28;20497;-76
2021/12/20 09:25:27;;;;;;;8.05;6.68;;;;;;;5.40;60.44;99943.91;4974298;28;20031;-75
2021/12/20 09:27:54;;;;;;;15.57;7.30;;;;;;;4.76;63.07;99953.78;4976048;28;20034;-77
2021/12/20 09:30:22;;;;;;;7.43;6.72;;;;;;;4.67;64.66;99950.28;4969471;28;20035;-75
2021/12/20 09:32:48;;;;;;;7.47;6.88;;;;;;;4.25;67.44;99949.19;4971145;28;20078;-74
2021/12/20 09:35:13;;;;;;;15.82;8.00;;;;;;;4.12;69.57;99946.97;4966553;28;20600;-71
2021/12/20 09:37:39;;;;;;;14.23;7.45;;;;;;;3.92;71.67;99943.59;4967967;28;20033;-76
2021/12/20 09:40:07;;;;;;;16.08;8.00;;;;;;;3.69;72.73;99951.03;4974231;28;20080;-76
2021/12/20 09:42:33;;;;;;;11.50;8.52;;;;;;;3.57;74.24;99942.50;4967938;28;20400;-72
2021/12/20 09:45:00;;;;;;;10.05;8.20;;;;;;;3.67;74.28;99945.09;4970367;28;20476;-71
2021/12/20 09:47:32;;;;;;;7.78;7.18;;;;;;;3.58;74.56;99952.03;4975299;28;20030;-78
2021/12/20 09:50:00;;;;;;;8.80;8.13;;;;;;;3.54;75.09;99945.44;4972552;28;20026;-72
2021/12/20 09:52:26;;;;;;;11.30;8.02;;;;;;;3.42;77.13;99958.84;4973485;28;20030;-75
2021/12/20 09:54:51;;;;;;;11.65;8.75;;;;;;;3.35;77.67;99955.16;4973062;28;20503;-72
2021/12/20 09:57:19;;;;;;;15.90;8.25;;;;;;;3.33;78.28;99957.91;4975589;28;20392;-73
2021/12/20 09:59:45;;;;;;;7.28;6.78;;;;;;;3.19;78.31;99953.13;4967446;28;20114;-71
2021/12/20 10:02:11;;;;;;;14.15;7.93;;;;;;;3.50;78.89;99962.41;4973714;28;20113;-75
2021/12/20 10:04:36;;;;;;;22.13;8.30;;;;;;;3.37;79.04;99963.69;4978103;28;20034;-72
2021/12/20 10:07:03;;;;;;;9.43;7.28;;;;;;;3.50;78.32;99949.28;4975736;28;20468;-72
2021/12/20 10:09:34;;;;;;;9.30;8.20;;;;;;;3.42;78.97;99959.69;4974657;28;20496;-71
2021/12/20 10:12:29;;;;;;;7.93;7.22;;;;;;;3.10;79.37;99953.97;4965838;28;20477;-74
2021/12/20 10:15:03;;;;;;;10.07;8.52;;;;;;;3.11;79.79;99940.72;4955518;28;20035;-70
2021/12/20 10:17:56;;;;;;;13.85;8.10;;;;;;;3.19;79.22;99953.13;4969811;28;20046;-69
2021/12/20 10:20:25;;;;;;;9.95;7.38;;;;;;;3.26;78.61;99946.34;4972136;28;20081;-73
2021/12/20 10:22:52;;;;;;;7.20;6.60;;;;;;;2.97;78.77;99933.31;4961717;28;20044;-74
2021/12/20 10:25:25;;;;;;;7.82;7.03;;;;;;;3.20;78.26;99960.00;4968229;28;20460;-73
2021/12/20 10:27:51;;;;;;;10.95;7.68;;;;;;;3.18;78.59;99964.56;4967489;28;20019;-77
2021/12/20 10:30:29;;;;;;;8.32;7.00;;;;;;;3.07;77.82;99955.06;4968305;28;20488;-72
2021/12/20 10:32:56;;;;;;;8.20;7.35;;;;;;;3.17;78.51;99962.94;4964546;28;20027;-75
2021/12/20 10:35:37;;;;;;;8.80;8.00;;;;;;;3.36;77.67;99973.34;4964208;28;20035;-71
2021/12/20 10:38:06;;;;;;;8.45;7.03;;;;;;;3.27;78.09;99967.16;4966096;28;20037;-73
2021/12/20 10:40:46;;;;;;;7.50;6.75;;;;;;;3.21;77.13;99952.00;4964688;28;20058;-72
2021/12/20 10:43:14;;;;;;;7.68;6.38;;;;;;;3.13;77.84;99953.69;4974737;28;20571;-75
2021/12/20 10:45:40;;;;;;;8.95;7.07;;;;;;;3.35;77.08;99955.16;4972061;28;20031;-76
2021/12/20 10:48:10;;;;;;;8.18;7.10;;;;;;;3.31;77.43;99959.88;4970663;28;20041;-72
2021/12/20 10:50:42;;;;;;;11.40;7.13;;;;;;;3.39;77.36;99956.53;4967692;28;20389;-71
2021/12/20 10:53:23;;;;;;;7.10;6.53;;;;;;;3.33;77.67;99955.28;4968176;28;20126;-72
2021/12/20 10:55:53;;;;;;;8.80;6.65;;;;;;;3.40;77.50;99945.06;4968627;28;20043;-69
2021/12/20 10:58:48;;;;;;;9.07;6.88;;;;;;;3.38;77.82;99955.69;4971242;28;20440;-72
2021/12/20 11:01:15;;;;;;;13.95;7.45;;;;;;;3.42;77.57;99953.59;4967270;28;20043;-73
2021/12/20 11:03:43;;;;;;;8.13;7.38;;;;;;;3.45;77.57;99948.91;4969982;28;20049;-73
2021/12/20 11:11:26;;;;;;;15.43;7.75;;;;;;;3.56;73.92;99947.91;4962502;28;20094;-74
2021/12/20 11:13:52;;;;;;;8.57;6.93;;;;;;;3.68;73.52;99959.06;4968430;28;20484;-76
2021/12/20 11:16:37;;;;;;;9.20;7.57;;;;;;;3.84;73.14;99951.38;4968598;28;20103;-73
2021/12/20 11:19:21;;;;;;;9.65;6.75;;;;;;;3.94;71.49;99954.78;4967717;28;20821;-75
2021/12/20 11:21:58;;;;;;;10.02;6.30;;;;;;;4.15;71.12;99955.34;4966379;28;20035;-76
2021/12/20 11:24:46;;;;;;;11.30;7.85;;;;;;;4.14;71.68;99960.75;4958076;28;20492;-75
2021/12/20 11:27:25;;;;;;;15.95;7.38;;;;;;;4.29;72.03;99956.66;4972403;28;20082;-75
2021/12/20 11:29:53;;;;;;;15.57;7.65;;;;;;;4.06;72.14;99956.25;4971853;28;20027;-76
2021/12/20 11:32:21;;;;;;;9.68;7.05;;;;;;;4.09;71.83;99963.81;4970355;28;20440;-75
2021/12/20 11:34:46;;;;;;;11.88;7.35;;;;;;;4.23;72.21;99948.53;4976160;28;20022;-76
2021/12/20 11:37:14;;;;;;;11.52;7.90;;;;;;;3.96;72.05;99965.13;4966399;28;20027;-74
2021/12/20 11:39:41;;;;;;;15.88;7.30;;;;;;;3.79;72.05;99959.69;4963118;28;20110;-76
2021/12/20 11:42:08;;;;;;;7.65;6.95;;;;;;;3.94;70.91;99965.28;4969484;28;20031;-73
2021/12/20 11:44:35;;;;;;;10.75;6.63;;;;;;;4.04;70.68;99958.19;4969881;28;20058;-73
2021/12/20 11:47:07;;;;;;;8.43;7.57;;;;;;;4.01;70.32;99957.63;4967813;28;20029;-72
2021/12/20 11:49:33;;;;;;;15.98;7.15;;;;;;;4.03;70.54;99966.19;4970844;28;20089;-77